sensor_id;sensor_type;location;lat;lon;timestamp;temperature;humidity
30150;DHT22;16962;48.646;9.026;2023-08-30T00:00:51;11.50;99.90
30150;DHT22;16962;48.646;9.026;2023-08-30T00:03:52;11.50;99.90
30150;DHT22;16962;48.646;9.026;2023-08-30T00:06:41;11.40;99.90
30150;DHT22;16962;48.646;9.026;2023-08-30T00:09:28;11.50;99.90
30150;DHT22;16962;48.646;9.026;2023-08-30T00:12:16;11.50;99.90
30150;DHT22;16962;48.646;9.026;2023-08-30T00:15:03;11.60;99.90
30150;DHT22;16962;48.646;9.026;2023-08-30T00:17:56;11.60;99.90
30150;DHT22;16962;48.646;9.026;2023-08-30T00:20:43;11.60;99.90
30150;DHT22;16962;48.646;9.026;2023-08-30T00:23:31;11.60;99.90
30150;DHT22;16962;48.646;9.026;2023-08-30T00:26:25;11.60;99.90
30150;DHT22;16962;48.646;9.026;2023-08-30T00:29:23;11.70;99.90
30150;DHT22;16962;48.646;9.026;2023-08-30T00:32:11;11.70;99.90
30150;DHT22;16962;48.646;9.026;2023-08-30T00:34:58;11.70;99.90
30150;DHT22;16962;48.646;9.026;2023-08-30T00:37:46;11.60;99.90
30150;DHT22;16962;48.646;9.026;2023-08-30T00:40:40;11.60;99.90
30150;DHT22;16962;48.646;9.026;2023-08-30T00:43:30;11.60;99.90
30150;DHT22;16962;48.646;9.026;2023-08-30T00:46:35;11.60;99.90
30150;DHT22;16962;48.646;9.026;2023-08-30T00:49:33;11.60;99.90
30150;DHT22;16962;48.646;9.026;2023-08-30T00:52:21;11.60;99.90
30150;DHT22;16962;48.646;9.026;2023-08-30T00:55:09;11.60;99.90
30150;DHT22;16962;48.646;9.026;2023-08-30T00:58:00;11.60;99.90
30150;DHT22;16962;48.646;9.026;2023-08-30T01:00:49;11.60;99.90
30150;DHT22;16962;48.646;9.026;2023-08-30T01:03:39;11.70;99.90
30150;DHT22;16962;48.646;9.026;2023-08-30T01:06:41;11.70;99.90
30150;DHT22;16962;48.646;9.026;2023-08-30T01:09:32;11.70;99.90
30150;DHT22;16962;48.646;9.026;2023-08-30T01:12:37;11.70;99.90
30150;DHT22;16962;48.646;9.026;2023-08-30T01:15:26;11.70;99.90
30150;DHT22;16962;48.646;9.026;2023-08-30T01:18:18;11.70;99.90
30150;DHT22;16962;48.646;9.026;2023-08-30T01:21:21;11.70;99.90
30150;DHT22;16962;48.646;9.026;2023-08-30T01:24:32;11.60;99.90
30150;DHT22;16962;48.646;9.026;2023-08-30T01:27:25;11.70;99.90
30150;DHT22;16962;48.646;9.026;2023-08-30T01:30:13;11.60;99.90
30150;DHT22;16962;48.646;9.026;2023-08-30T01:33:03;11.60;99.90
30150;DHT22;16962;48.646;9.026;2023-08-30T01:35:56;11.60;99.90
30150;DHT22;16962;48.646;9.026;2023-08-30T01:38:48;11.60;99.90
30150;DHT22;16962;48.646;9.026;2023-08-30T01:41:41;11.50;99.90
30150;DHT22;16962;48.646;9.026;2023-08-30T01:44:30;11.50;99.90
30150;DHT22;16962;48.646;9.026;2023-08-30T01:47:18;11.50;99.90
30150;DHT22;16962;48.646;9.026;2023-08-30T01:50:07;11.40;99.90
30150;DHT22;16962;48.646;9.026;2023-08-30T01:53:08;11.40;99.90
30150;DHT22;16962;48.646;9.026;2023-08-30T02:00:21;11.30;99.90
30150;DHT22;16962;48.646;9.026;2023-08-30T02:03:10;11.30;99.90
30150;DHT22;16962;48.646;9.026;2023-08-30T02:06:00;11.30;99.90
30150;DHT22;16962;48.646;9.026;2023-08-30T02:09:17;11.30;99.90
30150;DHT22;16962;48.646;9.026;2023-08-30T02:12:31;11.30;99.90
30150;DHT22;16962;48.646;9.026;2023-08-30T02:15:24;11.30;99.90
30150;DHT22;16962;48.646;9.026;2023-08-30T02:18:16;11.20;99.90
30150;DHT22;16962;48.646;9.026;2023-08-30T02:21:06;11.20;99.90
30150;DHT22;16962;48.646;9.026;2023-08-30T02:23:54;11.20;99.90
30150;DHT22;16962;48.646;9.026;2023-08-30T02:26:42;11.20;99.90
30150;DHT22;16962;48.646;9.026;2023-08-30T02:29:29;11.20;99.90
30150;DHT22;16962;48.646;9.026;2023-08-30T02:32:17;11.20;99.90
30150;DHT22;16962;48.646;9.026;2023-08-30T02:37:47;11.10;99.90
30150;DHT22;16962;48.646;9.026;2023-08-30T02:44:37;11.00;99.90
30150;DHT22;16962;48.646;9.026;2023-08-30T02:47:25;11.00;99.90
30150;DHT22;16962;48.646;9.026;2023-08-30T02:50:13;10.90;99.90
30150;DHT22;16962;48.646;9.026;2023-08-30T02:53:00;10.90;99.90
30150;DHT22;16962;48.646;9.026;2023-08-30T02:55:51;10.80;99.90
30150;DHT22;16962;48.646;9.026;2023-08-30T02:58:41;10.80;99.90
30150;DHT22;16962;48.646;9.026;2023-08-30T03:01:28;10.80;99.90
30150;DHT22;16962;48.646;9.026;2023-08-30T03:04:16;10.80;99.90
30150;DHT22;16962;48.646;9.026;2023-08-30T03:07:06;10.90;99.90
30150;DHT22;16962;48.646;9.026;2023-08-30T03:09:54;10.80;99.90
30150;DHT22;16962;48.646;9.026;2023-08-30T03:12:42;10.80;99.90
30150;DHT22;16962;48.646;9.026;2023-08-30T03:18:51;10.70;99.90
30150;DHT22;16962;48.646;9.026;2023-08-30T03:21:38;10.60;99.90
30150;DHT22;16962;48.646;9.026;2023-08-30T03:24:28;10.60;99.90
30150;DHT22;16962;48.646;9.026;2023-08-30T03:27:16;10.60;99.90
30150;DHT22;16962;48.646;9.026;2023-08-30T03:30:06;10.60;99.90
30150;DHT22;16962;48.646;9.026;2023-08-30T03:32:53;10.60;99.90
30150;DHT22;16962;48.646;9.026;2023-08-30T03:35:41;10.60;99.90
30150;DHT22;16962;48.646;9.026;2023-08-30T03:38:28;10.60;99.90
30150;DHT22;16962;48.646;9.026;2023-08-30T03:41:18;10.50;99.90
30150;DHT22;16962;48.646;9.026;2023-08-30T03:44:05;10.50;99.90
30150;DHT22;16962;48.646;9.026;2023-08-30T03:46:59;10.50;99.90
30150;DHT22;16962;48.646;9.026;2023-08-30T03:49:51;10.40;99.90
30150;DHT22;16962;48.646;9.026;2023-08-30T03:52:40;10.40;99.90
30150;DHT22;16962;48.646;9.026;2023-08-30T03:55:27;10.50;99.90
30150;DHT22;16962;48.646;9.026;2023-08-30T03:58:15;10.50;99.90
30150;DHT22;16962;48.646;9.026;2023-08-30T04:01:27;10.50;99.90
30150;DHT22;16962;48.646;9.026;2023-08-30T04:04:30;10.50;99.90
30150;DHT22;16962;48.646;9.026;2023-08-30T04:07:17;10.50;99.90
30150;DHT22;16962;48.646;9.026;2023-08-30T04:10:08;10.50;99.90
30150;DHT22;16962;48.646;9.026;2023-08-30T04:12:56;10.50;99.90
30150;DHT22;16962;48.646;9.026;2023-08-30T04:15:43;10.50;99.90
30150;DHT22;16962;48.646;9.026;2023-08-30T04:18:31;10.60;99.90
30150;DHT22;16962;48.646;9.026;2023-08-30T04:21:22;10.60;99.90
30150;DHT22;16962;48.646;9.026;2023-08-30T04:24:18;10.60;99.90
30150;DHT22;16962;48.646;9.026;2023-08-30T04:27:06;10.70;99.90
30150;DHT22;16962;48.646;9.026;2023-08-30T04:29:58;10.70;99.90
30150;DHT22;16962;48.646;9.026;2023-08-30T04:32:46;10.70;99.90
30150;DHT22;16962;48.646;9.026;2023-08-30T04:35:33;10.70;99.90
30150;DHT22;16962;48.646;9.026;2023-08-30T04:38:28;10.70;99.90
30150;DHT22;16962;48.646;9.026;2023-08-30T04:46:02;10.70;99.90
30150;DHT22;16962;48.646;9.026;2023-08-30T04:48:58;10.70;99.90
30150;DHT22;16962;48.646;9.026;2023-08-30T04:51:54;10.70;99.90
30150;DHT22;16962;48.646;9.026;2023-08-30T04:54:43;10.70;99.90
30150;DHT22;16962;48.646;9.026;2023-08-30T04:57:32;10.80;99.90
30150;DHT22;16962;48.646;9.026;2023-08-30T05:00:20;10.80;99.90
30150;DHT22;16962;48.646;9.026;2023-08-30T05:03:07;10.80;99.90
30150;DHT22;16962;48.646;9.026;2023-08-30T05:05:58;10.80;99.90
30150;DHT22;16962;48.646;9.026;2023-08-30T05:08:49;10.80;99.90
30150;DHT22;16962;48.646;9.026;2023-08-30T05:11:36;10.80;99.90
30150;DHT22;16962;48.646;9.026;2023-08-30T05:14:24;10.80;99.90
30150;DHT22;16962;48.646;9.026;2023-08-30T05:17:11;10.80;99.90
30150;DHT22;16962;48.646;9.026;2023-08-30T05:19:58;10.80;99.90
30150;DHT22;16962;48.646;9.026;2023-08-30T05:22:46;10.90;99.90
30150;DHT22;16962;48.646;9.026;2023-08-30T05:25:33;10.90;99.90
30150;DHT22;16962;48.646;9.026;2023-08-30T05:28:21;10.90;99.90
30150;DHT22;16962;48.646;9.026;2023-08-30T05:31:10;10.90;99.90
30150;DHT22;16962;48.646;9.026;2023-08-30T05:33:57;10.90;99.90
30150;DHT22;16962;48.646;9.026;2023-08-30T05:36:45;11.00;99.90
30150;DHT22;16962;48.646;9.026;2023-08-30T05:39:32;11.00;99.90
30150;DHT22;16962;48.646;9.026;2023-08-30T05:42:19;11.00;99.90
30150;DHT22;16962;48.646;9.026;2023-08-30T05:45:07;11.00;99.90
30150;DHT22;16962;48.646;9.026;2023-08-30T05:47:54;11.10;99.90
30150;DHT22;16962;48.646;9.026;2023-08-30T05:50:41;11.10;99.90
30150;DHT22;16962;48.646;9.026;2023-08-30T05:53:29;11.20;99.90
30150;DHT22;16962;48.646;9.026;2023-08-30T05:56:16;11.30;99.90
30150;DHT22;16962;48.646;9.026;2023-08-30T05:59:04;11.30;99.90
30150;DHT22;16962;48.646;9.026;2023-08-30T06:01:54;11.30;99.90
30150;DHT22;16962;48.646;9.026;2023-08-30T06:04:42;11.40;99.90
30150;DHT22;16962;48.646;9.026;2023-08-30T06:07:32;11.40;99.90
30150;DHT22;16962;48.646;9.026;2023-08-30T06:10:21;11.40;99.90
30150;DHT22;16962;48.646;9.026;2023-08-30T06:13:10;11.40;99.90
30150;DHT22;16962;48.646;9.026;2023-08-30T06:15:59;11.50;99.90
30150;DHT22;16962;48.646;9.026;2023-08-30T06:18:48;11.50;99.90
30150;DHT22;16962;48.646;9.026;2023-08-30T06:21:42;11.40;99.90
30150;DHT22;16962;48.646;9.026;2023-08-30T06:24:29;11.40;99.90
30150;DHT22;16962;48.646;9.026;2023-08-30T06:27:19;11.50;99.90
30150;DHT22;16962;48.646;9.026;2023-08-30T06:30:11;11.40;99.90
30150;DHT22;16962;48.646;9.026;2023-08-30T06:32:58;11.40;99.90
30150;DHT22;16962;48.646;9.026;2023-08-30T06:35:48;11.40;99.90
30150;DHT22;16962;48.646;9.026;2023-08-30T06:38:36;11.50;99.90
30150;DHT22;16962;48.646;9.026;2023-08-30T06:41:23;11.50;99.90
30150;DHT22;16962;48.646;9.026;2023-08-30T06:44:10;11.50;99.90
30150;DHT22;16962;48.646;9.026;2023-08-30T06:46:58;11.50;99.90
30150;DHT22;16962;48.646;9.026;2023-08-30T06:49:48;11.60;99.90
30150;DHT22;16962;48.646;9.026;2023-08-30T06:52:35;11.60;99.90
30150;DHT22;16962;48.646;9.026;2023-08-30T06:55:23;11.70;99.90
30150;DHT22;16962;48.646;9.026;2023-08-30T06:58:10;11.70;99.90
30150;DHT22;16962;48.646;9.026;2023-08-30T07:00:58;11.70;99.90
30150;DHT22;16962;48.646;9.026;2023-08-30T07:03:45;11.80;99.90
30150;DHT22;16962;48.646;9.026;2023-08-30T07:06:36;11.80;99.90
30150;DHT22;16962;48.646;9.026;2023-08-30T07:09:23;11.90;99.90
30150;DHT22;16962;48.646;9.026;2023-08-30T07:12:15;12.00;99.90
30150;DHT22;16962;48.646;9.026;2023-08-30T07:15:04;12.10;99.90
30150;DHT22;16962;48.646;9.026;2023-08-30T07:17:54;12.20;99.90
30150;DHT22;16962;48.646;9.026;2023-08-30T07:20:44;12.20;99.90
30150;DHT22;16962;48.646;9.026;2023-08-30T07:23:32;12.20;99.90
30150;DHT22;16962;48.646;9.026;2023-08-30T07:26:19;12.40;99.90
30150;DHT22;16962;48.646;9.026;2023-08-30T07:29:06;12.40;99.90
30150;DHT22;16962;48.646;9.026;2023-08-30T07:31:54;12.50;99.90
30150;DHT22;16962;48.646;9.026;2023-08-30T07:34:41;12.50;99.90
30150;DHT22;16962;48.646;9.026;2023-08-30T07:37:30;12.50;99.90
30150;DHT22;16962;48.646;9.026;2023-08-30T07:40:18;12.50;99.90
30150;DHT22;16962;48.646;9.026;2023-08-30T07:43:05;12.60;99.90
30150;DHT22;16962;48.646;9.026;2023-08-30T07:45:53;12.60;99.90
30150;DHT22;16962;48.646;9.026;2023-08-30T07:48:46;12.60;99.90
30150;DHT22;16962;48.646;9.026;2023-08-30T07:51:33;12.70;99.90
30150;DHT22;16962;48.646;9.026;2023-08-30T07:54:20;12.80;99.90
30150;DHT22;16962;48.646;9.026;2023-08-30T07:57:07;12.90;99.90
30150;DHT22;16962;48.646;9.026;2023-08-30T07:59:58;12.90;99.90
30150;DHT22;16962;48.646;9.026;2023-08-30T08:02:46;13.10;99.90
30150;DHT22;16962;48.646;9.026;2023-08-30T08:05:35;13.10;99.90
30150;DHT22;16962;48.646;9.026;2023-08-30T08:08:23;13.20;99.90
30150;DHT22;16962;48.646;9.026;2023-08-30T08:11:10;13.30;99.90
30150;DHT22;16962;48.646;9.026;2023-08-30T08:14:00;13.30;99.90
30150;DHT22;16962;48.646;9.026;2023-08-30T08:16:47;13.60;99.90
30150;DHT22;16962;48.646;9.026;2023-08-30T08:19:37;13.80;99.90
30150;DHT22;16962;48.646;9.026;2023-08-30T08:22:26;14.10;99.90
30150;DHT22;16962;48.646;9.026;2023-08-30T08:25:14;14.20;99.90
30150;DHT22;16962;48.646;9.026;2023-08-30T08:28:02;14.30;99.90
30150;DHT22;16962;48.646;9.026;2023-08-30T08:30:50;14.40;99.90
30150;DHT22;16962;48.646;9.026;2023-08-30T08:33:38;14.50;99.90
30150;DHT22;16962;48.646;9.026;2023-08-30T08:36:26;14.70;99.90
30150;DHT22;16962;48.646;9.026;2023-08-30T08:39:13;14.70;99.90
30150;DHT22;16962;48.646;9.026;2023-08-30T08:42:04;14.70;99.90
30150;DHT22;16962;48.646;9.026;2023-08-30T08:44:54;14.70;99.90
30150;DHT22;16962;48.646;9.026;2023-08-30T08:47:41;14.70;99.10
30150;DHT22;16962;48.646;9.026;2023-08-30T08:50:29;14.70;99.90
30150;DHT22;16962;48.646;9.026;2023-08-30T08:53:17;15.00;27.90
30150;DHT22;16962;48.646;9.026;2023-08-30T08:56:06;15.30;1.00
30150;DHT22;16962;48.646;9.026;2023-08-30T08:58:57;15.70;99.90
30150;DHT22;16962;48.646;9.026;2023-08-30T09:01:44;16.00;1.00
30150;DHT22;16962;48.646;9.026;2023-08-30T09:04:32;16.10;1.00
30150;DHT22;16962;48.646;9.026;2023-08-30T09:07:19;16.60;99.90
30150;DHT22;16962;48.646;9.026;2023-08-30T09:10:07;16.70;99.90
30150;DHT22;16962;48.646;9.026;2023-08-30T09:12:57;16.60;99.90
30150;DHT22;16962;48.646;9.026;2023-08-30T09:15:44;16.70;1.00
30150;DHT22;16962;48.646;9.026;2023-08-30T09:18:32;17.00;99.90
30150;DHT22;16962;48.646;9.026;2023-08-30T09:21:19;17.70;99.90
30150;DHT22;16962;48.646;9.026;2023-08-30T09:24:07;18.00;22.90
30150;DHT22;16962;48.646;9.026;2023-08-30T09:26:54;18.40;1.00
30150;DHT22;16962;48.646;9.026;2023-08-30T09:29:42;18.90;1.00
30150;DHT22;16962;48.646;9.026;2023-08-30T09:32:38;19.40;99.90
30150;DHT22;16962;48.646;9.026;2023-08-30T09:35:26;19.80;99.90
30150;DHT22;16962;48.646;9.026;2023-08-30T09:38:19;19.40;99.90
30150;DHT22;16962;48.646;9.026;2023-08-30T09:41:06;19.30;99.90
30150;DHT22;16962;48.646;9.026;2023-08-30T09:43:54;18.70;99.90
30150;DHT22;16962;48.646;9.026;2023-08-30T09:46:59;18.90;99.90
30150;DHT22;16962;48.646;9.026;2023-08-30T09:49:54;19.40;71.40
30150;DHT22;16962;48.646;9.026;2023-08-30T09:52:42;19.60;29.90
30150;DHT22;16962;48.646;9.026;2023-08-30T09:55:30;19.60;15.10
30150;DHT22;16962;48.646;9.026;2023-08-30T09:58:17;20.00;9.10
30150;DHT22;16962;48.646;9.026;2023-08-30T10:01:07;20.20;1.00
30150;DHT22;16962;48.646;9.026;2023-08-30T10:03:56;20.40;1.00
30150;DHT22;16962;48.646;9.026;2023-08-30T10:06:45;20.60;1.00
30150;DHT22;16962;48.646;9.026;2023-08-30T10:09:36;20.60;1.00
30150;DHT22;16962;48.646;9.026;2023-08-30T10:12:24;20.60;1.00
30150;DHT22;16962;48.646;9.026;2023-08-30T10:15:15;20.70;1.00
30150;DHT22;16962;48.646;9.026;2023-08-30T10:18:04;20.80;1.00
30150;DHT22;16962;48.646;9.026;2023-08-30T10:20:54;21.10;1.00
30150;DHT22;16962;48.646;9.026;2023-08-30T10:23:42;21.00;99.90
30150;DHT22;16962;48.646;9.026;2023-08-30T10:26:30;20.70;99.90
30150;DHT22;16962;48.646;9.026;2023-08-30T10:29:20;20.50;99.90
30150;DHT22;16962;48.646;9.026;2023-08-30T10:32:08;20.90;99.90
30150;DHT22;16962;48.646;9.026;2023-08-30T10:34:55;20.70;99.90
30150;DHT22;16962;48.646;9.026;2023-08-30T10:37:45;20.50;99.90
30150;DHT22;16962;48.646;9.026;2023-08-30T10:40:47;20.70;99.90
30150;DHT22;16962;48.646;9.026;2023-08-30T10:43:36;21.60;99.90
30150;DHT22;16962;48.646;9.026;2023-08-30T10:46:32;21.60;99.90
30150;DHT22;16962;48.646;9.026;2023-08-30T10:49:20;21.40;99.90
30150;DHT22;16962;48.646;9.026;2023-08-30T10:52:11;21.20;99.90
30150;DHT22;16962;48.646;9.026;2023-08-30T10:55:15;21.50;99.90
30150;DHT22;16962;48.646;9.026;2023-08-30T10:58:03;21.40;99.90
30150;DHT22;16962;48.646;9.026;2023-08-30T11:00:54;21.40;99.90
30150;DHT22;16962;48.646;9.026;2023-08-30T11:03:42;20.70;99.90
30150;DHT22;16962;48.646;9.026;2023-08-30T11:06:29;21.50;99.90
30150;DHT22;16962;48.646;9.026;2023-08-30T11:09:18;22.30;99.90
30150;DHT22;16962;48.646;9.026;2023-08-30T11:12:06;23.20;99.90
30150;DHT22;16962;48.646;9.026;2023-08-30T11:14:54;23.50;99.90
30150;DHT22;16962;48.646;9.026;2023-08-30T11:17:44;22.90;99.90
30150;DHT22;16962;48.646;9.026;2023-08-30T11:20:32;21.80;99.90
30150;DHT22;16962;48.646;9.026;2023-08-30T11:23:19;22.00;99.90
30150;DHT22;16962;48.646;9.026;2023-08-30T11:26:07;22.10;99.90
30150;DHT22;16962;48.646;9.026;2023-08-30T11:28:54;21.70;99.90
30150;DHT22;16962;48.646;9.026;2023-08-30T11:31:44;21.90;99.90
30150;DHT22;16962;48.646;9.026;2023-08-30T11:34:32;21.40;99.90
30150;DHT22;16962;48.646;9.026;2023-08-30T11:37:20;21.00;99.90
30150;DHT22;16962;48.646;9.026;2023-08-30T11:40:11;20.50;99.90
30150;DHT22;16962;48.646;9.026;2023-08-30T11:43:03;19.70;99.90
30150;DHT22;16962;48.646;9.026;2023-08-30T11:45:56;19.10;99.90
30150;DHT22;16962;48.646;9.026;2023-08-30T11:48:45;18.60;99.90
30150;DHT22;16962;48.646;9.026;2023-08-30T11:51:33;17.90;99.90
30150;DHT22;16962;48.646;9.026;2023-08-30T11:54:20;17.30;99.90
30150;DHT22;16962;48.646;9.026;2023-08-30T11:57:08;16.50;1.00
30150;DHT22;16962;48.646;9.026;2023-08-30T11:59:55;15.70;99.90
30150;DHT22;16962;48.646;9.026;2023-08-30T12:02:53;15.00;1.00
30150;DHT22;16962;48.646;9.026;2023-08-30T12:05:47;14.70;1.00
30150;DHT22;16962;48.646;9.026;2023-08-30T12:08:36;14.50;1.00
30150;DHT22;16962;48.646;9.026;2023-08-30T12:11:23;14.50;99.90
30150;DHT22;16962;48.646;9.026;2023-08-30T12:14:12;14.50;99.90
30150;DHT22;16962;48.646;9.026;2023-08-30T12:17:00;14.60;99.90
30150;DHT22;16962;48.646;9.026;2023-08-30T12:19:55;14.70;99.90
30150;DHT22;16962;48.646;9.026;2023-08-30T12:22:43;15.00;99.90
30150;DHT22;16962;48.646;9.026;2023-08-30T12:25:30;15.20;99.90
30150;DHT22;16962;48.646;9.026;2023-08-30T12:28:21;15.20;99.90
30150;DHT22;16962;48.646;9.026;2023-08-30T12:31:09;15.30;99.90
30150;DHT22;16962;48.646;9.026;2023-08-30T12:33:56;15.30;99.90
30150;DHT22;16962;48.646;9.026;2023-08-30T12:36:44;15.20;99.90
30150;DHT22;16962;48.646;9.026;2023-08-30T12:39:31;15.20;99.90
30150;DHT22;16962;48.646;9.026;2023-08-30T12:42:19;15.10;99.90
30150;DHT22;16962;48.646;9.026;2023-08-30T12:45:06;15.10;99.90
30150;DHT22;16962;48.646;9.026;2023-08-30T12:47:57;15.00;99.90
30150;DHT22;16962;48.646;9.026;2023-08-30T12:50:48;15.00;99.90
30150;DHT22;16962;48.646;9.026;2023-08-30T12:53:37;15.10;99.90
30150;DHT22;16962;48.646;9.026;2023-08-30T12:56:24;15.10;99.90
30150;DHT22;16962;48.646;9.026;2023-08-30T12:59:14;15.10;99.90
30150;DHT22;16962;48.646;9.026;2023-08-30T13:02:01;15.20;63.20
30150;DHT22;16962;48.646;9.026;2023-08-30T13:04:49;15.20;99.90
30150;DHT22;16962;48.646;9.026;2023-08-30T13:07:39;15.10;99.90
30150;DHT22;16962;48.646;9.026;2023-08-30T13:10:29;15.40;99.90
30150;DHT22;16962;48.646;9.026;2023-08-30T13:13:16;15.80;99.90
30150;DHT22;16962;48.646;9.026;2023-08-30T13:16:04;16.10;99.90
30150;DHT22;16962;48.646;9.026;2023-08-30T13:18:53;16.50;1.00
30150;DHT22;16962;48.646;9.026;2023-08-30T13:21:40;16.80;1.00
30150;DHT22;16962;48.646;9.026;2023-08-30T13:24:29;17.60;1.00
30150;DHT22;16962;48.646;9.026;2023-08-30T13:27:20;18.80;99.90
30150;DHT22;16962;48.646;9.026;2023-08-30T13:30:07;20.20;99.90
30150;DHT22;16962;48.646;9.026;2023-08-30T13:32:54;21.50;99.90
30150;DHT22;16962;48.646;9.026;2023-08-30T13:35:41;22.90;99.90
30150;DHT22;16962;48.646;9.026;2023-08-30T13:38:29;23.60;1.00
30150;DHT22;16962;48.646;9.026;2023-08-30T13:41:16;24.10;1.00
30150;DHT22;16962;48.646;9.026;2023-08-30T13:44:06;24.30;99.90
30150;DHT22;16962;48.646;9.026;2023-08-30T13:46:57;23.40;99.90
30150;DHT22;16962;48.646;9.026;2023-08-30T13:49:44;22.80;99.90
30150;DHT22;16962;48.646;9.026;2023-08-30T13:52:34;23.00;99.90
30150;DHT22;16962;48.646;9.026;2023-08-30T13:55:21;24.00;99.90
30150;DHT22;16962;48.646;9.026;2023-08-30T13:58:14;24.80;99.90
30150;DHT22;16962;48.646;9.026;2023-08-30T14:01:01;25.20;99.90
30150;DHT22;16962;48.646;9.026;2023-08-30T14:03:48;25.90;99.90
30150;DHT22;16962;48.646;9.026;2023-08-30T14:06:38;26.40;99.90
30150;DHT22;16962;48.646;9.026;2023-08-30T14:09:28;26.30;99.90
30150;DHT22;16962;48.646;9.026;2023-08-30T14:12:15;25.50;99.90
30150;DHT22;16962;48.646;9.026;2023-08-30T14:15:02;24.50;99.90
30150;DHT22;16962;48.646;9.026;2023-08-30T14:17:50;23.30;99.90
30150;DHT22;16962;48.646;9.026;2023-08-30T14:20:37;23.10;99.90
30150;DHT22;16962;48.646;9.026;2023-08-30T14:23:27;23.90;99.90
30150;DHT22;16962;48.646;9.026;2023-08-30T14:26:15;23.90;99.90
30150;DHT22;16962;48.646;9.026;2023-08-30T14:29:02;23.80;99.90
30150;DHT22;16962;48.646;9.026;2023-08-30T14:31:50;22.80;99.90
30150;DHT22;16962;48.646;9.026;2023-08-30T14:34:43;22.00;99.90
30150;DHT22;16962;48.646;9.026;2023-08-30T14:37:30;21.30;99.90
30150;DHT22;16962;48.646;9.026;2023-08-30T14:40:17;20.70;99.90
30150;DHT22;16962;48.646;9.026;2023-08-30T14:43:06;20.40;99.90
30150;DHT22;16962;48.646;9.026;2023-08-30T14:46:04;19.80;99.90
30150;DHT22;16962;48.646;9.026;2023-08-30T14:48:57;19.30;1.00
30150;DHT22;16962;48.646;9.026;2023-08-30T14:51:46;19.00;1.00
30150;DHT22;16962;48.646;9.026;2023-08-30T14:54:34;18.80;1.00
30150;DHT22;16962;48.646;9.026;2023-08-30T14:57:22;18.60;1.00
30150;DHT22;16962;48.646;9.026;2023-08-30T15:00:10;18.50;91.30
30150;DHT22;16962;48.646;9.026;2023-08-30T15:02:57;18.50;99.90
30150;DHT22;16962;48.646;9.026;2023-08-30T15:05:53;18.60;99.90
30150;DHT22;16962;48.646;9.026;2023-08-30T15:08:42;18.70;67.40
30150;DHT22;16962;48.646;9.026;2023-08-30T15:11:30;19.40;99.80
30150;DHT22;16962;48.646;9.026;2023-08-30T15:14:17;20.30;1.00
30150;DHT22;16962;48.646;9.026;2023-08-30T15:17:07;20.60;1.00
30150;DHT22;16962;48.646;9.026;2023-08-30T15:19:54;20.30;99.90
30150;DHT22;16962;48.646;9.026;2023-08-30T15:22:41;19.90;99.90
30150;DHT22;16962;48.646;9.026;2023-08-30T15:25:41;19.60;1.00
30150;DHT22;16962;48.646;9.026;2023-08-30T15:28:28;19.40;1.00
30150;DHT22;16962;48.646;9.026;2023-08-30T15:31:16;19.50;1.00
30150;DHT22;16962;48.646;9.026;2023-08-30T15:34:08;19.80;1.00
30150;DHT22;16962;48.646;9.026;2023-08-30T15:36:55;20.50;1.00
30150;DHT22;16962;48.646;9.026;2023-08-30T15:39:44;21.10;99.90
30150;DHT22;16962;48.646;9.026;2023-08-30T15:42:35;21.20;99.90
30150;DHT22;16962;48.646;9.026;2023-08-30T15:45:40;21.20;99.90
30150;DHT22;16962;48.646;9.026;2023-08-30T15:48:33;21.80;99.90
30150;DHT22;16962;48.646;9.026;2023-08-30T15:51:23;22.30;99.90
30150;DHT22;16962;48.646;9.026;2023-08-30T15:54:22;22.10;99.90
30150;DHT22;16962;48.646;9.026;2023-08-30T15:57:19;21.30;99.90
30150;DHT22;16962;48.646;9.026;2023-08-30T16:00:18;20.80;99.90
30150;DHT22;16962;48.646;9.026;2023-08-30T16:03:10;20.70;99.90
30150;DHT22;16962;48.646;9.026;2023-08-30T16:05:57;21.30;99.90
30150;DHT22;16962;48.646;9.026;2023-08-30T16:08:52;21.70;99.90
30150;DHT22;16962;48.646;9.026;2023-08-30T16:11:44;22.70;99.90
30150;DHT22;16962;48.646;9.026;2023-08-30T16:14:34;23.00;99.90
30150;DHT22;16962;48.646;9.026;2023-08-30T16:17:22;23.20;99.90
30150;DHT22;16962;48.646;9.026;2023-08-30T16:32:52;20.50;99.90
30150;DHT22;16962;48.646;9.026;2023-08-30T16:35:39;19.90;99.90
30150;DHT22;16962;48.646;9.026;2023-08-30T16:38:26;20.10;99.90
30150;DHT22;16962;48.646;9.026;2023-08-30T16:41:24;19.60;99.90
30150;DHT22;16962;48.646;9.026;2023-08-30T16:44:32;19.00;99.90
30150;DHT22;16962;48.646;9.026;2023-08-30T16:47:28;18.50;99.90
30150;DHT22;16962;48.646;9.026;2023-08-30T16:50:17;18.30;99.90
30150;DHT22;16962;48.646;9.026;2023-08-30T16:53:15;18.20;99.90
30150;DHT22;16962;48.646;9.026;2023-08-30T16:56:12;18.00;99.90
30150;DHT22;16962;48.646;9.026;2023-08-30T16:59:34;17.90;1.00
30150;DHT22;16962;48.646;9.026;2023-08-30T17:07:32;17.70;1.00
30150;DHT22;16962;48.646;9.026;2023-08-30T17:10:52;17.50;1.00
30150;DHT22;16962;48.646;9.026;2023-08-30T17:14:01;17.40;1.00
30150;DHT22;16962;48.646;9.026;2023-08-30T17:17:05;17.30;1.00
30150;DHT22;16962;48.646;9.026;2023-08-30T17:19:54;17.30;1.00
30150;DHT22;16962;48.646;9.026;2023-08-30T17:22:41;17.20;1.00
30150;DHT22;16962;48.646;9.026;2023-08-30T17:25:34;17.10;1.00
30150;DHT22;16962;48.646;9.026;2023-08-30T17:28:39;17.10;1.00
30150;DHT22;16962;48.646;9.026;2023-08-30T17:31:46;17.00;1.00
30150;DHT22;16962;48.646;9.026;2023-08-30T17:34:33;16.90;10.40
30150;DHT22;16962;48.646;9.026;2023-08-30T17:37:31;16.80;51.10
30150;DHT22;16962;48.646;9.026;2023-08-30T17:40:39;16.70;99.90
30150;DHT22;16962;48.646;9.026;2023-08-30T17:47:20;16.50;99.90
30150;DHT22;16962;48.646;9.026;2023-08-30T17:50:26;16.50;99.90
30150;DHT22;16962;48.646;9.026;2023-08-30T17:53:36;16.30;99.90
30150;DHT22;16962;48.646;9.026;2023-08-30T17:56:46;16.20;99.90
30150;DHT22;16962;48.646;9.026;2023-08-30T17:59:34;16.10;99.90
30150;DHT22;16962;48.646;9.026;2023-08-30T18:02:34;16.00;99.90
30150;DHT22;16962;48.646;9.026;2023-08-30T18:05:35;16.00;99.90
30150;DHT22;16962;48.646;9.026;2023-08-30T18:08:46;15.90;99.90
30150;DHT22;16962;48.646;9.026;2023-08-30T18:11:36;15.70;99.90
30150;DHT22;16962;48.646;9.026;2023-08-30T18:14:24;15.70;99.90
30150;DHT22;16962;48.646;9.026;2023-08-30T18:17:29;15.60;99.90
30150;DHT22;16962;48.646;9.026;2023-08-30T18:20:19;15.50;1.00
30150;DHT22;16962;48.646;9.026;2023-08-30T18:23:06;15.40;1.00
30150;DHT22;16962;48.646;9.026;2023-08-30T18:25:54;15.30;1.00
30150;DHT22;16962;48.646;9.026;2023-08-30T18:28:51;15.20;99.90
30150;DHT22;16962;48.646;9.026;2023-08-30T18:31:50;15.10;99.90
30150;DHT22;16962;48.646;9.026;2023-08-30T18:34:40;15.10;99.90
30150;DHT22;16962;48.646;9.026;2023-08-30T18:37:38;15.00;1.00
30150;DHT22;16962;48.646;9.026;2023-08-30T18:40:32;15.00;1.00